sensor_id;sensor_type;location;lat;lon;timestamp;temperature;humidity
58809;DHT22;44579;51.672;7.834;2023-09-30T00:01:47;15.30;82.90
58809;DHT22;44579;51.672;7.834;2023-09-30T00:04:16;15.40;83.00
58809;DHT22;44579;51.672;7.834;2023-09-30T00:06:43;15.40;82.90
58809;DHT22;44579;51.672;7.834;2023-09-30T00:09:10;15.40;82.90
58809;DHT22;44579;51.672;7.834;2023-09-30T00:11:38;15.40;82.90
58809;DHT22;44579;51.672;7.834;2023-09-30T00:14:05;15.40;82.90
58809;DHT22;44579;51.672;7.834;2023-09-30T00:16:33;15.40;82.90
58809;DHT22;44579;51.672;7.834;2023-09-30T00:19:00;15.40;83.00
58809;DHT22;44579;51.672;7.834;2023-09-30T00:21:29;15.40;83.00
58809;DHT22;44579;51.672;7.834;2023-09-30T00:23:56;15.40;83.10
58809;DHT22;44579;51.672;7.834;2023-09-30T00:26:23;15.30;83.00
58809;DHT22;44579;51.672;7.834;2023-09-30T00:28:50;15.30;83.40
58809;DHT22;44579;51.672;7.834;2023-09-30T00:31:17;15.20;83.40
58809;DHT22;44579;51.672;7.834;2023-09-30T00:33:44;15.20;83.40
58809;DHT22;44579;51.672;7.834;2023-09-30T00:36:11;15.20;83.40
58809;DHT22;44579;51.672;7.834;2023-09-30T00:38:39;15.10;83.50
58809;DHT22;44579;51.672;7.834;2023-09-30T00:41:06;15.10;83.60
58809;DHT22;44579;51.672;7.834;2023-09-30T00:43:34;15.10;83.60
58809;DHT22;44579;51.672;7.834;2023-09-30T00:46:52;15.10;83.70
58809;DHT22;44579;51.672;7.834;2023-09-30T00:49:00;15.10;83.70
58809;DHT22;44579;51.672;7.834;2023-09-30T00:51:31;15.10;83.70
58809;DHT22;44579;51.672;7.834;2023-09-30T00:53:59;15.10;83.70
58809;DHT22;44579;51.672;7.834;2023-09-30T00:56:28;15.10;83.70
58809;DHT22;44579;51.672;7.834;2023-09-30T00:58:55;15.10;83.70
58809;DHT22;44579;51.672;7.834;2023-09-30T01:01:22;15.10;83.70
58809;DHT22;44579;51.672;7.834;2023-09-30T01:03:51;15.10;83.70
58809;DHT22;44579;51.672;7.834;2023-09-30T01:06:24;15.10;83.90
58809;DHT22;44579;51.672;7.834;2023-09-30T01:08:53;15.10;84.10
58809;DHT22;44579;51.672;7.834;2023-09-30T01:11:21;15.10;84.10
58809;DHT22;44579;51.672;7.834;2023-09-30T01:13:47;15.10;84.10
58809;DHT22;44579;51.672;7.834;2023-09-30T01:16:16;15.00;84.30
58809;DHT22;44579;51.672;7.834;2023-09-30T01:18:43;15.00;84.30
58809;DHT22;44579;51.672;7.834;2023-09-30T01:21:10;15.10;84.30
58809;DHT22;44579;51.672;7.834;2023-09-30T01:23:40;15.10;84.30
58809;DHT22;44579;51.672;7.834;2023-09-30T01:26:10;15.10;84.10
58809;DHT22;44579;51.672;7.834;2023-09-30T01:28:39;15.10;84.00
58809;DHT22;44579;51.672;7.834;2023-09-30T01:31:07;15.10;84.00
58809;DHT22;44579;51.672;7.834;2023-09-30T01:33:34;15.00;84.00
58809;DHT22;44579;51.672;7.834;2023-09-30T01:36:02;15.10;84.00
58809;DHT22;44579;51.672;7.834;2023-09-30T01:38:30;15.10;84.10
58809;DHT22;44579;51.672;7.834;2023-09-30T01:40:57;15.00;84.10
58809;DHT22;44579;51.672;7.834;2023-09-30T01:43:27;15.10;84.20
58809;DHT22;44579;51.672;7.834;2023-09-30T01:45:55;15.00;84.30
58809;DHT22;44579;51.672;7.834;2023-09-30T01:48:23;15.00;84.20
58809;DHT22;44579;51.672;7.834;2023-09-30T01:50:51;15.10;84.20
58809;DHT22;44579;51.672;7.834;2023-09-30T01:53:18;15.10;84.30
58809;DHT22;44579;51.672;7.834;2023-09-30T01:55:45;15.10;84.30
58809;DHT22;44579;51.672;7.834;2023-09-30T01:58:12;15.10;84.30
58809;DHT22;44579;51.672;7.834;2023-09-30T02:00:43;15.00;84.30
58809;DHT22;44579;51.672;7.834;2023-09-30T02:03:10;15.10;84.40
58809;DHT22;44579;51.672;7.834;2023-09-30T02:05:39;15.10;84.40
58809;DHT22;44579;51.672;7.834;2023-09-30T02:08:06;15.10;84.50
58809;DHT22;44579;51.672;7.834;2023-09-30T02:10:33;15.10;84.60
58809;DHT22;44579;51.672;7.834;2023-09-30T02:13:01;15.10;84.60
58809;DHT22;44579;51.672;7.834;2023-09-30T02:15:28;15.00;84.50
58809;DHT22;44579;51.672;7.834;2023-09-30T02:17:55;15.00;84.80
58809;DHT22;44579;51.672;7.834;2023-09-30T02:20:23;15.00;84.90
58809;DHT22;44579;51.672;7.834;2023-09-30T02:22:52;14.90;85.00
58809;DHT22;44579;51.672;7.834;2023-09-30T02:25:21;14.90;85.00
58809;DHT22;44579;51.672;7.834;2023-09-30T02:27:50;14.90;85.00
58809;DHT22;44579;51.672;7.834;2023-09-30T02:30:17;14.90;85.00
58809;DHT22;44579;51.672;7.834;2023-09-30T02:32:44;14.90;85.00
58809;DHT22;44579;51.672;7.834;2023-09-30T02:35:13;14.90;85.00
58809;DHT22;44579;51.672;7.834;2023-09-30T02:37:42;14.90;85.00
58809;DHT22;44579;51.672;7.834;2023-09-30T02:40:10;14.90;85.00
58809;DHT22;44579;51.672;7.834;2023-09-30T02:42:38;14.90;85.00
58809;DHT22;44579;51.672;7.834;2023-09-30T02:45:07;14.90;85.10
58809;DHT22;44579;51.672;7.834;2023-09-30T02:47:35;14.80;85.20
58809;DHT22;44579;51.672;7.834;2023-09-30T02:50:06;14.80;85.20
58809;DHT22;44579;51.672;7.834;2023-09-30T02:52:35;14.80;85.30
58809;DHT22;44579;51.672;7.834;2023-09-30T02:55:03;14.80;85.30
58809;DHT22;44579;51.672;7.834;2023-09-30T02:57:30;14.80;85.30
58809;DHT22;44579;51.672;7.834;2023-09-30T02:59:58;14.70;85.40
58809;DHT22;44579;51.672;7.834;2023-09-30T03:02:28;14.70;85.40
58809;DHT22;44579;51.672;7.834;2023-09-30T03:04:57;14.70;85.50
58809;DHT22;44579;51.672;7.834;2023-09-30T03:07:25;14.70;85.50
58809;DHT22;44579;51.672;7.834;2023-09-30T03:09:52;14.70;85.40
58809;DHT22;44579;51.672;7.834;2023-09-30T03:12:21;14.60;85.60
58809;DHT22;44579;51.672;7.834;2023-09-30T03:14:48;14.60;85.50
58809;DHT22;44579;51.672;7.834;2023-09-30T03:17:15;14.60;85.50
58809;DHT22;44579;51.672;7.834;2023-09-30T03:19:42;14.60;85.30
58809;DHT22;44579;51.672;7.834;2023-09-30T03:22:09;14.50;85.50
58809;DHT22;44579;51.672;7.834;2023-09-30T03:24:39;14.50;85.50
58809;DHT22;44579;51.672;7.834;2023-09-30T03:27:07;14.50;85.40
58809;DHT22;44579;51.672;7.834;2023-09-30T03:29:38;14.50;85.40
58809;DHT22;44579;51.672;7.834;2023-09-30T03:32:05;14.50;85.40
58809;DHT22;44579;51.672;7.834;2023-09-30T03:34:35;14.50;85.40
58809;DHT22;44579;51.672;7.834;2023-09-30T03:37:03;14.50;86.30
58809;DHT22;44579;51.672;7.834;2023-09-30T03:39:33;14.50;85.40
58809;DHT22;44579;51.672;7.834;2023-09-30T03:42:01;14.40;85.50
58809;DHT22;44579;51.672;7.834;2023-09-30T03:44:28;14.40;85.60
58809;DHT22;44579;51.672;7.834;2023-09-30T03:46:55;14.30;85.50
58809;DHT22;44579;51.672;7.834;2023-09-30T03:49:24;14.30;85.80
58809;DHT22;44579;51.672;7.834;2023-09-30T03:51:53;14.30;85.80
58809;DHT22;44579;51.672;7.834;2023-09-30T03:54:20;14.30;85.70
58809;DHT22;44579;51.672;7.834;2023-09-30T03:56:48;14.30;85.70
58809;DHT22;44579;51.672;7.834;2023-09-30T03:59:15;14.30;85.60
58809;DHT22;44579;51.672;7.834;2023-09-30T04:01:48;14.30;85.70
58809;DHT22;44579;51.672;7.834;2023-09-30T04:04:19;14.30;85.80
58809;DHT22;44579;51.672;7.834;2023-09-30T04:06:48;14.30;85.80
58809;DHT22;44579;51.672;7.834;2023-09-30T04:09:15;14.20;85.80
58809;DHT22;44579;51.672;7.834;2023-09-30T04:11:43;14.30;85.80
58809;DHT22;44579;51.672;7.834;2023-09-30T04:14:13;14.20;85.70
58809;DHT22;44579;51.672;7.834;2023-09-30T04:16:40;14.30;85.80
58809;DHT22;44579;51.672;7.834;2023-09-30T04:19:08;14.20;85.80
58809;DHT22;44579;51.672;7.834;2023-09-30T04:21:37;14.20;85.80
58809;DHT22;44579;51.672;7.834;2023-09-30T04:24:06;14.20;86.10
58809;DHT22;44579;51.672;7.834;2023-09-30T04:26:33;14.20;86.00
58809;DHT22;44579;51.672;7.834;2023-09-30T04:29:00;14.20;86.00
58809;DHT22;44579;51.672;7.834;2023-09-30T04:31:28;14.20;86.00
58809;DHT22;44579;51.672;7.834;2023-09-30T04:33:56;14.20;85.90
58809;DHT22;44579;51.672;7.834;2023-09-30T04:36:28;14.20;85.90
58809;DHT22;44579;51.672;7.834;2023-09-30T04:38:58;14.10;86.00
58809;DHT22;44579;51.672;7.834;2023-09-30T04:41:27;14.10;86.00
58809;DHT22;44579;51.672;7.834;2023-09-30T04:43:55;14.10;86.00
58809;DHT22;44579;51.672;7.834;2023-09-30T04:46:22;14.10;85.90
58809;DHT22;44579;51.672;7.834;2023-09-30T04:48:51;14.10;85.90
58809;DHT22;44579;51.672;7.834;2023-09-30T04:51:19;14.00;85.90
58809;DHT22;44579;51.672;7.834;2023-09-30T04:53:46;14.00;85.90
58809;DHT22;44579;51.672;7.834;2023-09-30T04:56:13;14.00;85.90
58809;DHT22;44579;51.672;7.834;2023-09-30T04:58:43;14.00;86.00
58809;DHT22;44579;51.672;7.834;2023-09-30T05:01:10;14.00;86.00
58809;DHT22;44579;51.672;7.834;2023-09-30T05:03:39;13.90;85.90
58809;DHT22;44579;51.672;7.834;2023-09-30T05:06:06;13.90;86.00
58809;DHT22;44579;51.672;7.834;2023-09-30T05:08:34;13.90;86.10
58809;DHT22;44579;51.672;7.834;2023-09-30T05:11:02;14.00;86.20
58809;DHT22;44579;51.672;7.834;2023-09-30T05:13:33;13.90;86.10
58809;DHT22;44579;51.672;7.834;2023-09-30T05:16:03;13.80;86.30
58809;DHT22;44579;51.672;7.834;2023-09-30T05:18:31;13.90;86.40
58809;DHT22;44579;51.672;7.834;2023-09-30T05:20:58;13.80;86.20
58809;DHT22;44579;51.672;7.834;2023-09-30T05:23:25;13.80;86.20
58809;DHT22;44579;51.672;7.834;2023-09-30T05:25:54;13.90;86.20
58809;DHT22;44579;51.672;7.834;2023-09-30T05:28:24;13.90;86.20
58809;DHT22;44579;51.672;7.834;2023-09-30T05:30:51;13.90;86.20
58809;DHT22;44579;51.672;7.834;2023-09-30T05:33:23;13.90;86.20
58809;DHT22;44579;51.672;7.834;2023-09-30T05:35:50;13.90;86.30
58809;DHT22;44579;51.672;7.834;2023-09-30T05:38:18;13.80;86.30
58809;DHT22;44579;51.672;7.834;2023-09-30T05:40:46;13.80;86.30
58809;DHT22;44579;51.672;7.834;2023-09-30T05:43:17;13.70;86.40
58809;DHT22;44579;51.672;7.834;2023-09-30T05:45:44;13.80;86.60
58809;DHT22;44579;51.672;7.834;2023-09-30T05:48:18;13.80;86.50
58809;DHT22;44579;51.672;7.834;2023-09-30T05:50:46;13.80;86.50
58809;DHT22;44579;51.672;7.834;2023-09-30T05:53:15;13.80;86.50
58809;DHT22;44579;51.672;7.834;2023-09-30T05:55:43;13.80;86.50
58809;DHT22;44579;51.672;7.834;2023-09-30T05:58:13;13.70;86.60
58809;DHT22;44579;51.672;7.834;2023-09-30T06:00:41;13.70;86.70
58809;DHT22;44579;51.672;7.834;2023-09-30T06:03:09;13.70;86.80
58809;DHT22;44579;51.672;7.834;2023-09-30T06:05:41;13.70;86.80
58809;DHT22;44579;51.672;7.834;2023-09-30T06:08:09;13.80;86.90
58809;DHT22;44579;51.672;7.834;2023-09-30T06:10:43;13.80;86.80
58809;DHT22;44579;51.672;7.834;2023-09-30T06:13:13;13.70;86.80
58809;DHT22;44579;51.672;7.834;2023-09-30T06:15:41;13.80;86.90
58809;DHT22;44579;51.672;7.834;2023-09-30T06:18:14;13.80;87.00
58809;DHT22;44579;51.672;7.834;2023-09-30T06:20:42;13.80;87.10
58809;DHT22;44579;51.672;7.834;2023-09-30T06:23:09;13.80;86.90
58809;DHT22;44579;51.672;7.834;2023-09-30T06:25:37;13.80;87.20
58809;DHT22;44579;51.672;7.834;2023-09-30T06:28:08;13.90;87.10
58809;DHT22;44579;51.672;7.834;2023-09-30T06:30:35;13.90;87.10
58809;DHT22;44579;51.672;7.834;2023-09-30T06:33:04;14.00;87.00
58809;DHT22;44579;51.672;7.834;2023-09-30T06:35:43;14.00;86.80
58809;DHT22;44579;51.672;7.834;2023-09-30T06:38:21;14.10;86.80
58809;DHT22;44579;51.672;7.834;2023-09-30T06:40:52;14.10;86.60
58809;DHT22;44579;51.672;7.834;2023-09-30T06:43:22;14.30;86.60
58809;DHT22;44579;51.672;7.834;2023-09-30T06:45:55;14.30;86.60
58809;DHT22;44579;51.672;7.834;2023-09-30T06:48:25;14.30;86.60
58809;DHT22;44579;51.672;7.834;2023-09-30T06:50:52;14.30;86.60
58809;DHT22;44579;51.672;7.834;2023-09-30T06:53:19;14.40;86.70
58809;DHT22;44579;51.672;7.834;2023-09-30T06:55:48;14.40;86.70
58809;DHT22;44579;51.672;7.834;2023-09-30T06:58:15;14.50;86.80
58809;DHT22;44579;51.672;7.834;2023-09-30T07:00:51;14.50;86.70
58809;DHT22;44579;51.672;7.834;2023-09-30T07:03:18;14.60;86.80
58809;DHT22;44579;51.672;7.834;2023-09-30T07:05:53;14.70;86.70
58809;DHT22;44579;51.672;7.834;2023-09-30T07:08:30;14.80;86.70
58809;DHT22;44579;51.672;7.834;2023-09-30T07:10:58;14.80;86.70
58809;DHT22;44579;51.672;7.834;2023-09-30T07:13:25;14.90;86.60
58809;DHT22;44579;51.672;7.834;2023-09-30T07:15:53;14.90;86.60
58809;DHT22;44579;51.672;7.834;2023-09-30T07:18:20;15.00;86.60
58809;DHT22;44579;51.672;7.834;2023-09-30T07:20:47;15.00;86.60
58809;DHT22;44579;51.672;7.834;2023-09-30T07:23:15;15.10;86.70
58809;DHT22;44579;51.672;7.834;2023-09-30T07:25:47;15.20;86.80
58809;DHT22;44579;51.672;7.834;2023-09-30T07:28:14;15.20;86.70
58809;DHT22;44579;51.672;7.834;2023-09-30T07:30:44;15.20;86.60
58809;DHT22;44579;51.672;7.834;2023-09-30T07:33:14;15.30;86.70
58809;DHT22;44579;51.672;7.834;2023-09-30T07:35:45;15.30;86.60
58809;DHT22;44579;51.672;7.834;2023-09-30T07:38:12;15.30;86.60
58809;DHT22;44579;51.672;7.834;2023-09-30T07:40:39;15.40;86.70
58809;DHT22;44579;51.672;7.834;2023-09-30T07:43:06;15.40;86.70
58809;DHT22;44579;51.672;7.834;2023-09-30T07:45:36;15.40;86.70
58809;DHT22;44579;51.672;7.834;2023-09-30T07:48:04;15.40;87.70
58809;DHT22;44579;51.672;7.834;2023-09-30T07:50:32;15.50;86.80
58809;DHT22;44579;51.672;7.834;2023-09-30T07:53:01;15.50;86.70
58809;DHT22;44579;51.672;7.834;2023-09-30T07:55:28;15.60;86.70
58809;DHT22;44579;51.672;7.834;2023-09-30T07:57:56;15.60;86.70
58809;DHT22;44579;51.672;7.834;2023-09-30T08:00:24;15.60;86.90
58809;DHT22;44579;51.672;7.834;2023-09-30T08:02:56;15.60;87.00
58809;DHT22;44579;51.672;7.834;2023-09-30T08:05:28;15.60;87.10
58809;DHT22;44579;51.672;7.834;2023-09-30T08:07:55;15.70;87.00
58809;DHT22;44579;51.672;7.834;2023-09-30T08:10:25;15.70;87.00
58809;DHT22;44579;51.672;7.834;2023-09-30T08:12:54;15.80;86.90
58809;DHT22;44579;51.672;7.834;2023-09-30T08:15:24;15.90;86.90
58809;DHT22;44579;51.672;7.834;2023-09-30T08:17:52;15.90;86.70
58809;DHT22;44579;51.672;7.834;2023-09-30T08:20:19;16.00;86.70
58809;DHT22;44579;51.672;7.834;2023-09-30T08:22:49;16.10;86.80
58809;DHT22;44579;51.672;7.834;2023-09-30T08:25:18;16.10;86.70
58809;DHT22;44579;51.672;7.834;2023-09-30T08:27:45;16.20;86.90
58809;DHT22;44579;51.672;7.834;2023-09-30T08:30:17;16.20;86.90
58809;DHT22;44579;51.672;7.834;2023-09-30T08:32:45;16.20;86.80
58809;DHT22;44579;51.672;7.834;2023-09-30T08:35:14;16.20;86.80
58809;DHT22;44579;51.672;7.834;2023-09-30T08:37:42;16.20;86.80
58809;DHT22;44579;51.672;7.834;2023-09-30T08:40:11;16.30;86.80
58809;DHT22;44579;51.672;7.834;2023-09-30T08:42:41;16.30;86.80
58809;DHT22;44579;51.672;7.834;2023-09-30T08:45:09;16.40;86.80
58809;DHT22;44579;51.672;7.834;2023-09-30T08:47:37;16.30;86.70
58809;DHT22;44579;51.672;7.834;2023-09-30T08:50:06;16.30;87.10
58809;DHT22;44579;51.672;7.834;2023-09-30T08:52:37;16.40;87.00
58809;DHT22;44579;51.672;7.834;2023-09-30T08:55:08;16.40;86.90
58809;DHT22;44579;51.672;7.834;2023-09-30T08:57:42;16.50;86.80
58809;DHT22;44579;51.672;7.834;2023-09-30T09:00:13;16.50;86.80
58809;DHT22;44579;51.672;7.834;2023-09-30T09:02:44;16.60;86.80
58809;DHT22;44579;51.672;7.834;2023-09-30T09:05:16;16.60;86.80
58809;DHT22;44579;51.672;7.834;2023-09-30T09:07:43;16.60;86.70
58809;DHT22;44579;51.672;7.834;2023-09-30T09:10:12;16.70;86.70
58809;DHT22;44579;51.672;7.834;2023-09-30T09:12:55;16.70;86.60
58809;DHT22;44579;51.672;7.834;2023-09-30T09:15:28;16.80;86.50
58809;DHT22;44579;51.672;7.834;2023-09-30T09:17:58;16.80;86.50
58809;DHT22;44579;51.672;7.834;2023-09-30T09:20:27;16.90;86.40
58809;DHT22;44579;51.672;7.834;2023-09-30T09:22:55;16.90;86.30
58809;DHT22;44579;51.672;7.834;2023-09-30T09:25:23;17.00;86.40
58809;DHT22;44579;51.672;7.834;2023-09-30T09:27:53;17.00;86.30
58809;DHT22;44579;51.672;7.834;2023-09-30T09:30:26;17.10;86.10
58809;DHT22;44579;51.672;7.834;2023-09-30T09:33:05;17.00;85.90
58809;DHT22;44579;51.672;7.834;2023-09-30T09:35:34;17.10;86.00
58809;DHT22;44579;51.672;7.834;2023-09-30T09:38:06;17.10;85.90
58809;DHT22;44579;51.672;7.834;2023-09-30T09:40:38;17.20;85.70
58809;DHT22;44579;51.672;7.834;2023-09-30T09:43:07;17.20;85.60
58809;DHT22;44579;51.672;7.834;2023-09-30T09:45:35;17.30;85.80
58809;DHT22;44579;51.672;7.834;2023-09-30T09:48:04;17.40;85.70
58809;DHT22;44579;51.672;7.834;2023-09-30T09:50:32;17.40;86.00
58809;DHT22;44579;51.672;7.834;2023-09-30T09:53:00;17.50;85.80
58809;DHT22;44579;51.672;7.834;2023-09-30T09:55:28;17.50;85.80
58809;DHT22;44579;51.672;7.834;2023-09-30T09:57:55;17.60;85.80
58809;DHT22;44579;51.672;7.834;2023-09-30T10:00:26;17.70;85.90
58809;DHT22;44579;51.672;7.834;2023-09-30T10:02:57;17.70;85.80
58809;DHT22;44579;51.672;7.834;2023-09-30T10:05:26;17.80;85.50
58809;DHT22;44579;51.672;7.834;2023-09-30T10:08:07;17.90;85.20
58809;DHT22;44579;51.672;7.834;2023-09-30T10:10:38;17.90;84.60
58809;DHT22;44579;51.672;7.834;2023-09-30T10:24:47;18.40;83.80
58809;DHT22;44579;51.672;7.834;2023-09-30T10:29:59;18.40;83.70
58809;DHT22;44579;51.672;7.834;2023-09-30T10:40:48;18.60;83.40
58809;DHT22;44579;51.672;7.834;2023-09-30T10:43:34;18.60;83.30
58809;DHT22;44579;51.672;7.834;2023-09-30T10:46:03;18.60;83.30
58809;DHT22;44579;51.672;7.834;2023-09-30T10:48:34;18.60;84.10
58809;DHT22;44579;51.672;7.834;2023-09-30T10:51:12;18.60;83.40
58809;DHT22;44579;51.672;7.834;2023-09-30T10:53:45;18.70;83.00
58809;DHT22;44579;51.672;7.834;2023-09-30T10:56:14;18.80;82.40
58809;DHT22;44579;51.672;7.834;2023-09-30T10:58:52;18.70;82.20
58809;DHT22;44579;51.672;7.834;2023-09-30T11:01:23;18.80;82.00
58809;DHT22;44579;51.672;7.834;2023-09-30T11:03:59;18.90;81.90
58809;DHT22;44579;51.672;7.834;2023-09-30T11:06:31;18.90;81.70
58809;DHT22;44579;51.672;7.834;2023-09-30T11:09:00;18.90;81.40
58809;DHT22;44579;51.672;7.834;2023-09-30T11:11:38;18.90;80.90
58809;DHT22;44579;51.672;7.834;2023-09-30T11:14:17;18.90;80.60
58809;DHT22;44579;51.672;7.834;2023-09-30T11:16:45;18.90;80.60
58809;DHT22;44579;51.672;7.834;2023-09-30T11:19:13;19.00;80.70
58809;DHT22;44579;51.672;7.834;2023-09-30T11:21:42;19.00;80.50
58809;DHT22;44579;51.672;7.834;2023-09-30T11:24:13;19.10;80.70
58809;DHT22;44579;51.672;7.834;2023-09-30T11:26:41;19.10;80.80
58809;DHT22;44579;51.672;7.834;2023-09-30T11:29:16;19.20;80.70
58809;DHT22;44579;51.672;7.834;2023-09-30T11:31:45;19.30;80.60
58809;DHT22;44579;51.672;7.834;2023-09-30T11:34:15;19.30;80.60
58809;DHT22;44579;51.672;7.834;2023-09-30T11:36:53;19.30;80.50
58809;DHT22;44579;51.672;7.834;2023-09-30T11:39:27;19.30;80.20
58809;DHT22;44579;51.672;7.834;2023-09-30T11:41:55;19.30;80.00
58809;DHT22;44579;51.672;7.834;2023-09-30T11:44:24;19.40;79.80
58809;DHT22;44579;51.672;7.834;2023-09-30T11:47:00;19.50;79.50
58809;DHT22;44579;51.672;7.834;2023-09-30T11:49:36;19.50;79.40
58809;DHT22;44579;51.672;7.834;2023-09-30T11:52:11;19.50;79.00
58809;DHT22;44579;51.672;7.834;2023-09-30T11:54:40;19.50;78.20
58809;DHT22;44579;51.672;7.834;2023-09-30T11:57:18;19.50;78.00
58809;DHT22;44579;51.672;7.834;2023-09-30T11:59:46;19.50;77.90
58809;DHT22;44579;51.672;7.834;2023-09-30T12:02:15;19.50;77.70
58809;DHT22;44579;51.672;7.834;2023-09-30T12:04:43;19.50;77.10
58809;DHT22;44579;51.672;7.834;2023-09-30T12:07:12;19.40;74.80
58809;DHT22;44579;51.672;7.834;2023-09-30T12:09:40;19.40;72.90
58809;DHT22;44579;51.672;7.834;2023-09-30T12:12:08;19.30;73.30
58809;DHT22;44579;51.672;7.834;2023-09-30T12:14:41;19.30;73.80
58809;DHT22;44579;51.672;7.834;2023-09-30T12:17:08;19.30;74.00
58809;DHT22;44579;51.672;7.834;2023-09-30T12:19:42;19.20;74.30
58809;DHT22;44579;51.672;7.834;2023-09-30T12:22:10;19.30;74.60
58809;DHT22;44579;51.672;7.834;2023-09-30T12:24:40;19.20;74.70
58809;DHT22;44579;51.672;7.834;2023-09-30T12:27:08;19.20;75.10
58809;DHT22;44579;51.672;7.834;2023-09-30T12:29:35;19.20;75.00
58809;DHT22;44579;51.672;7.834;2023-09-30T12:32:15;19.30;74.90
58809;DHT22;44579;51.672;7.834;2023-09-30T12:34:42;19.30;74.80
58809;DHT22;44579;51.672;7.834;2023-09-30T12:37:16;19.30;74.80
58809;DHT22;44579;51.672;7.834;2023-09-30T12:39:46;19.20;73.90
58809;DHT22;44579;51.672;7.834;2023-09-30T12:42:14;19.10;73.30
58809;DHT22;44579;51.672;7.834;2023-09-30T12:44:42;19.10;73.60
58809;DHT22;44579;51.672;7.834;2023-09-30T12:47:13;19.00;73.70
58809;DHT22;44579;51.672;7.834;2023-09-30T12:49:53;19.00;73.70
58809;DHT22;44579;51.672;7.834;2023-09-30T12:52:27;19.00;73.80
58809;DHT22;44579;51.672;7.834;2023-09-30T12:54:57;18.90;74.80
58809;DHT22;44579;51.672;7.834;2023-09-30T12:57:25;18.90;74.00
58809;DHT22;44579;51.672;7.834;2023-09-30T12:59:55;18.90;74.00
58809;DHT22;44579;51.672;7.834;2023-09-30T13:02:22;18.90;74.10
58809;DHT22;44579;51.672;7.834;2023-09-30T13:04:50;18.80;74.30
58809;DHT22;44579;51.672;7.834;2023-09-30T13:07:17;18.70;74.50
58809;DHT22;44579;51.672;7.834;2023-09-30T13:09:44;18.70;74.50
58809;DHT22;44579;51.672;7.834;2023-09-30T13:12:13;18.70;74.40
58809;DHT22;44579;51.672;7.834;2023-09-30T13:14:40;18.60;74.30
58809;DHT22;44579;51.672;7.834;2023-09-30T13:17:13;18.60;74.50
58809;DHT22;44579;51.672;7.834;2023-09-30T13:19:51;18.60;74.70
58809;DHT22;44579;51.672;7.834;2023-09-30T13:22:18;18.60;74.60
58809;DHT22;44579;51.672;7.834;2023-09-30T13:24:46;18.70;74.50
58809;DHT22;44579;51.672;7.834;2023-09-30T13:27:14;18.80;75.30
58809;DHT22;44579;51.672;7.834;2023-09-30T13:29:44;18.80;74.30
58809;DHT22;44579;51.672;7.834;2023-09-30T13:32:13;18.90;74.10
58809;DHT22;44579;51.672;7.834;2023-09-30T13:34:41;18.90;73.90
58809;DHT22;44579;51.672;7.834;2023-09-30T13:37:09;19.00;73.90
58809;DHT22;44579;51.672;7.834;2023-09-30T13:39:37;19.00;73.80
58809;DHT22;44579;51.672;7.834;2023-09-30T13:42:05;19.00;73.80
58809;DHT22;44579;51.672;7.834;2023-09-30T13:44:36;19.10;73.90
58809;DHT22;44579;51.672;7.834;2023-09-30T13:47:03;19.10;73.70
58809;DHT22;44579;51.672;7.834;2023-09-30T13:49:34;19.10;73.70
58809;DHT22;44579;51.672;7.834;2023-09-30T13:52:01;19.20;73.70
58809;DHT22;44579;51.672;7.834;2023-09-30T13:54:28;19.20;73.50
58809;DHT22;44579;51.672;7.834;2023-09-30T13:56:58;19.30;73.50
58809;DHT22;44579;51.672;7.834;2023-09-30T13:59:28;19.20;73.20
58809;DHT22;44579;51.672;7.834;2023-09-30T14:01:56;19.30;73.20
58809;DHT22;44579;51.672;7.834;2023-09-30T14:04:24;19.20;73.10
58809;DHT22;44579;51.672;7.834;2023-09-30T14:06:51;19.20;73.00
58809;DHT22;44579;51.672;7.834;2023-09-30T14:09:18;19.30;73.00
58809;DHT22;44579;51.672;7.834;2023-09-30T14:11:48;19.30;72.90
58809;DHT22;44579;51.672;7.834;2023-09-30T14:17:18;19.20;72.90
58809;DHT22;44579;51.672;7.834;2023-09-30T14:19:45;19.20;73.30
58809;DHT22;44579;51.672;7.834;2023-09-30T14:22:12;19.20;73.20
58809;DHT22;44579;51.672;7.834;2023-09-30T14:24:40;19.20;73.00
58809;DHT22;44579;51.672;7.834;2023-09-30T14:27:07;19.20;72.80
58809;DHT22;44579;51.672;7.834;2023-09-30T14:29:35;19.30;73.70
58809;DHT22;44579;51.672;7.834;2023-09-30T14:32:03;19.20;72.50
58809;DHT22;44579;51.672;7.834;2023-09-30T14:34:31;19.30;72.30
58809;DHT22;44579;51.672;7.834;2023-09-30T14:36:59;19.30;72.20
58809;DHT22;44579;51.672;7.834;2023-09-30T14:39:29;19.30;72.10
58809;DHT22;44579;51.672;7.834;2023-09-30T14:41:59;19.30;72.00
58809;DHT22;44579;51.672;7.834;2023-09-30T14:44:28;19.30;71.90
58809;DHT22;44579;51.672;7.834;2023-09-30T14:47:01;19.30;71.70
58809;DHT22;44579;51.672;7.834;2023-09-30T14:49:31;19.30;71.60
58809;DHT22;44579;51.672;7.834;2023-09-30T14:51:58;19.30;71.60
58809;DHT22;44579;51.672;7.834;2023-09-30T14:54:26;19.30;71.50
58809;DHT22;44579;51.672;7.834;2023-09-30T14:56:56;19.30;71.50
58809;DHT22;44579;51.672;7.834;2023-09-30T14:59:27;19.30;71.50
58809;DHT22;44579;51.672;7.834;2023-09-30T15:01:55;19.30;71.30
58809;DHT22;44579;51.672;7.834;2023-09-30T15:04:22;19.30;71.40
58809;DHT22;44579;51.672;7.834;2023-09-30T15:06:53;19.30;71.60
58809;DHT22;44579;51.672;7.834;2023-09-30T15:09:22;19.30;71.50
58809;DHT22;44579;51.672;7.834;2023-09-30T15:11:50;19.40;71.40
58809;DHT22;44579;51.672;7.834;2023-09-30T15:14:17;19.30;71.30
58809;DHT22;44579;51.672;7.834;2023-09-30T15:16:45;19.30;71.30
58809;DHT22;44579;51.672;7.834;2023-09-30T15:19:15;19.40;71.40
58809;DHT22;44579;51.672;7.834;2023-09-30T15:21:46;19.30;71.10
58809;DHT22;44579;51.672;7.834;2023-09-30T15:24:13;19.40;71.10
58809;DHT22;44579;51.672;7.834;2023-09-30T15:26:44;19.30;70.90
58809;DHT22;44579;51.672;7.834;2023-09-30T15:29:11;19.30;71.00
58809;DHT22;44579;51.672;7.834;2023-09-30T15:31:38;19.30;71.20
58809;DHT22;44579;51.672;7.834;2023-09-30T15:34:09;19.30;71.00
58809;DHT22;44579;51.672;7.834;2023-09-30T15:36:38;19.20;71.00
58809;DHT22;44579;51.672;7.834;2023-09-30T15:39:05;19.20;71.00
58809;DHT22;44579;51.672;7.834;2023-09-30T15:41:33;19.20;71.00
58809;DHT22;44579;51.672;7.834;2023-09-30T15:44:02;19.10;71.00
58809;DHT22;44579;51.672;7.834;2023-09-30T15:46:29;19.10;71.00
58809;DHT22;44579;51.672;7.834;2023-09-30T15:48:59;19.10;70.90
58809;DHT22;44579;51.672;7.834;2023-09-30T15:51:26;19.10;70.80
58809;DHT22;44579;51.672;7.834;2023-09-30T15:53:54;19.10;70.80
58809;DHT22;44579;51.672;7.834;2023-09-30T15:56:22;19.10;70.70
58809;DHT22;44579;51.672;7.834;2023-09-30T15:58:49;19.10;71.50
58809;DHT22;44579;51.672;7.834;2023-09-30T16:01:18;19.10;70.60
58809;DHT22;44579;51.672;7.834;2023-09-30T16:03:49;19.00;70.50
58809;DHT22;44579;51.672;7.834;2023-09-30T16:06:19;19.00;70.40
58809;DHT22;44579;51.672;7.834;2023-09-30T16:08:49;19.00;70.40